sensor_id;sensor_type;location;lat;lon;timestamp;pressure;altitude;pressure_sealevel;temperature;humidity
71361;BME280;59166;48.908;1.870;2022-12-31T00:03:40;99568.50;;;14.19;100.00
71361;BME280;59166;48.908;1.870;2022-12-31T00:08:43;99575.38;;;14.16;100.00
71361;BME280;59166;48.908;1.870;2022-12-31T00:13:45;99562.31;;;14.18;100.00
71361;BME280;59166;48.908;1.870;2022-12-31T00:18:47;99593.69;;;14.24;100.00
71361;BME280;59166;48.908;1.870;2022-12-31T00:23:49;99590.38;;;14.27;100.00
71361;BME280;59166;48.908;1.870;2022-12-31T00:28:51;99610.41;;;14.31;100.00
71361;BME280;59166;48.908;1.870;2022-12-31T00:33:52;99604.34;;;14.34;100.00
71361;BME280;59166;48.908;1.870;2022-12-31T00:38:55;99616.81;;;14.35;100.00
71361;BME280;59166;48.908;1.870;2022-12-31T00:43:57;99615.63;;;14.28;100.00
71361;BME280;59166;48.908;1.870;2022-12-31T00:48:58;99606.25;;;14.20;100.00
71361;BME280;59166;48.908;1.870;2022-12-31T00:54:00;99615.63;;;14.28;100.00
71361;BME280;59166;48.908;1.870;2022-12-31T00:59:01;99618.13;;;14.24;100.00
71361;BME280;59166;48.908;1.870;2022-12-31T01:04:04;99613.53;;;14.38;100.00
71361;BME280;59166;48.908;1.870;2022-12-31T01:09:09;99618.16;;;14.52;100.00
71361;BME280;59166;48.908;1.870;2022-12-31T01:14:11;99648.84;;;14.66;100.00
71361;BME280;59166;48.908;1.870;2022-12-31T01:19:14;99646.41;;;14.78;100.00
71361;BME280;59166;48.908;1.870;2022-12-31T01:24:17;99641.38;;;14.85;100.00
71361;BME280;59166;48.908;1.870;2022-12-31T01:29:19;99647.44;;;14.96;100.00
71361;BME280;59166;48.908;1.870;2022-12-31T01:34:19;99658.16;;;15.14;100.00
71361;BME280;59166;48.908;1.870;2022-12-31T01:39:21;99659.78;;;15.15;100.00
71361;BME280;59166;48.908;1.870;2022-12-31T01:44:47;99670.72;;;15.24;100.00
71361;BME280;59166;48.908;1.870;2022-12-31T01:49:51;99665.25;;;15.37;100.00
71361;BME280;59166;48.908;1.870;2022-12-31T01:54:57;99674.22;;;15.38;100.00
71361;BME280;59166;48.908;1.870;2022-12-31T02:00:00;99681.38;;;15.34;100.00
71361;BME280;59166;48.908;1.870;2022-12-31T02:05:07;99673.41;;;15.37;100.00
71361;BME280;59166;48.908;1.870;2022-12-31T02:10:11;99690.56;;;15.38;100.00
71361;BME280;59166;48.908;1.870;2022-12-31T02:15:12;99691.09;;;15.26;100.00
71361;BME280;59166;48.908;1.870;2022-12-31T02:20:35;99694.78;;;15.30;100.00
71361;BME280;59166;48.908;1.870;2022-12-31T02:31:23;99687.88;;;15.24;100.00
71361;BME280;59166;48.908;1.870;2022-12-31T02:36:28;99694.31;;;15.28;99.27
71361;BME280;59166;48.908;1.870;2022-12-31T02:41:32;99693.69;;;15.31;98.28
71361;BME280;59166;48.908;1.870;2022-12-31T02:46:40;99714.03;;;15.34;98.03
71361;BME280;59166;48.908;1.870;2022-12-31T02:51:49;99728.38;;;15.39;96.93
71361;BME280;59166;48.908;1.870;2022-12-31T02:57:00;99709.50;;;15.43;96.16
71361;BME280;59166;48.908;1.870;2022-12-31T03:02:08;99731.38;;;15.38;97.19
71361;BME280;59166;48.908;1.870;2022-12-31T03:07:30;99719.69;;;15.37;96.28
71361;BME280;59166;48.908;1.870;2022-12-31T03:12:33;99718.09;;;15.36;96.59
71361;BME280;59166;48.908;1.870;2022-12-31T03:17:36;99714.13;;;15.42;95.05
71361;BME280;59166;48.908;1.870;2022-12-31T03:22:39;99718.16;;;15.45;95.15
71361;BME280;59166;48.908;1.870;2022-12-31T03:27:40;99734.28;;;15.41;95.37
71361;BME280;59166;48.908;1.870;2022-12-31T03:32:44;99733.63;;;15.36;95.76
71361;BME280;59166;48.908;1.870;2022-12-31T03:37:45;99716.66;;;15.39;94.95
71361;BME280;59166;48.908;1.870;2022-12-31T03:42:47;99728.66;;;15.38;94.37
71361;BME280;59166;48.908;1.870;2022-12-31T03:47:50;99725.53;;;15.31;95.20
71361;BME280;59166;48.908;1.870;2022-12-31T03:52:50;99737.34;;;15.40;94.21
71361;BME280;59166;48.908;1.870;2022-12-31T03:57:51;99729.47;;;15.38;94.43
71361;BME280;59166;48.908;1.870;2022-12-31T04:02:53;99729.19;;;15.40;93.92
71361;BME280;59166;48.908;1.870;2022-12-31T04:07:54;99707.41;;;15.40;93.71
71361;BME280;59166;48.908;1.870;2022-12-31T04:12:55;99711.84;;;15.36;94.03
71361;BME280;59166;48.908;1.870;2022-12-31T04:17:58;99726.44;;;15.40;93.74
71361;BME280;59166;48.908;1.870;2022-12-31T04:22:58;99726.06;;;15.33;93.76
71361;BME280;59166;48.908;1.870;2022-12-31T04:27:59;99737.75;;;15.33;94.02
71361;BME280;59166;48.908;1.870;2022-12-31T04:33:02;99729.88;;;15.32;93.38
71361;BME280;59166;48.908;1.870;2022-12-31T04:38:03;99697.41;;;15.35;92.43
71361;BME280;59166;48.908;1.870;2022-12-31T04:43:04;99727.22;;;15.40;91.88
71361;BME280;59166;48.908;1.870;2022-12-31T04:48:06;99738.22;;;15.49;91.97
71361;BME280;59166;48.908;1.870;2022-12-31T04:53:07;99730.13;;;15.58;90.80
71361;BME280;59166;48.908;1.870;2022-12-31T04:58:08;99754.94;;;15.56;91.39
71361;BME280;59166;48.908;1.870;2022-12-31T05:03:10;99745.06;;;15.60;90.79
71361;BME280;59166;48.908;1.870;2022-12-31T05:08:12;99763.16;;;15.65;90.13
71361;BME280;59166;48.908;1.870;2022-12-31T05:13:13;99770.72;;;15.68;90.48
71361;BME280;59166;48.908;1.870;2022-12-31T05:18:16;99767.19;;;15.67;90.13
71361;BME280;59166;48.908;1.870;2022-12-31T05:23:17;99777.91;;;15.64;90.17
71361;BME280;59166;48.908;1.870;2022-12-31T05:28:18;99764.69;;;15.57;90.42
71361;BME280;59166;48.908;1.870;2022-12-31T05:33:21;99759.16;;;15.62;89.55
71361;BME280;59166;48.908;1.870;2022-12-31T05:38:21;99790.00;;;15.58;89.29
71361;BME280;59166;48.908;1.870;2022-12-31T05:43:22;99775.97;;;15.64;88.77
71361;BME280;59166;48.908;1.870;2022-12-31T05:48:25;99768.56;;;15.56;89.32
71361;BME280;59166;48.908;1.870;2022-12-31T05:53:25;99778.03;;;15.45;90.02
71361;BME280;59166;48.908;1.870;2022-12-31T05:58:26;99786.69;;;15.47;89.60
71361;BME280;59166;48.908;1.870;2022-12-31T06:03:29;99800.63;;;15.46;88.90
71361;BME280;59166;48.908;1.870;2022-12-31T06:08:29;99793.69;;;15.39;89.30
71361;BME280;59166;48.908;1.870;2022-12-31T06:13:30;99801.53;;;15.27;89.98
71361;BME280;59166;48.908;1.870;2022-12-31T06:18:33;99815.16;;;15.27;90.55
71361;BME280;59166;48.908;1.870;2022-12-31T06:23:34;99799.16;;;15.26;90.26
71361;BME280;59166;48.908;1.870;2022-12-31T06:28:34;99814.53;;;15.30;89.92
71361;BME280;59166;48.908;1.870;2022-12-31T06:33:37;99817.06;;;15.27;89.98
71361;BME280;59166;48.908;1.870;2022-12-31T06:38:39;99818.69;;;15.28;90.87
71361;BME280;59166;48.908;1.870;2022-12-31T06:44:00;99833.78;;;15.20;90.90
71361;BME280;59166;48.908;1.870;2022-12-31T06:49:02;99847.09;;;15.08;91.92
71361;BME280;59166;48.908;1.870;2022-12-31T06:54:03;99839.53;;;15.05;92.02
71361;BME280;59166;48.908;1.870;2022-12-31T06:59:04;99844.34;;;14.95;92.92
71361;BME280;59166;48.908;1.870;2022-12-31T07:09:42;99842.00;;;14.88;93.63
71361;BME280;59166;48.908;1.870;2022-12-31T07:14:48;99835.22;;;14.72;94.21
71361;BME280;59166;48.908;1.870;2022-12-31T07:20:00;99858.00;;;14.76;94.06
71361;BME280;59166;48.908;1.870;2022-12-31T07:25:03;99842.78;;;14.75;93.83
71361;BME280;59166;48.908;1.870;2022-12-31T07:30:08;99851.53;;;14.72;94.38
71361;BME280;59166;48.908;1.870;2022-12-31T07:35:19;99851.63;;;14.67;94.70
71361;BME280;59166;48.908;1.870;2022-12-31T07:40:29;99858.47;;;14.64;94.73
71361;BME280;59166;48.908;1.870;2022-12-31T07:45:37;99876.78;;;14.59;94.80
71361;BME280;59166;48.908;1.870;2022-12-31T07:50:43;99884.78;;;14.50;95.77
71361;BME280;59166;48.908;1.870;2022-12-31T07:55:44;99873.69;;;14.47;95.89
71361;BME280;59166;48.908;1.870;2022-12-31T08:00:45;99890.31;;;14.45;95.33
71361;BME280;59166;48.908;1.870;2022-12-31T08:05:53;99888.41;;;14.46;95.27
71361;BME280;59166;48.908;1.870;2022-12-31T08:11:04;99898.25;;;14.41;95.27
71361;BME280;59166;48.908;1.870;2022-12-31T08:16:10;99891.69;;;14.42;95.24
71361;BME280;59166;48.908;1.870;2022-12-31T08:21:21;99893.84;;;14.46;94.96
71361;BME280;59166;48.908;1.870;2022-12-31T08:26:31;99905.50;;;14.46;95.31
71361;BME280;59166;48.908;1.870;2022-12-31T08:37:00;99925.00;;;14.34;95.40
71361;BME280;59166;48.908;1.870;2022-12-31T08:42:10;99935.84;;;14.34;95.48
71361;BME280;59166;48.908;1.870;2022-12-31T08:47:24;99949.72;;;14.33;95.18
71361;BME280;59166;48.908;1.870;2022-12-31T08:52:33;99939.38;;;14.35;94.62
71361;BME280;59166;48.908;1.870;2022-12-31T08:57:39;99953.25;;;14.33;95.26
71361;BME280;59166;48.908;1.870;2022-12-31T09:02:54;99951.94;;;14.31;94.58
71361;BME280;59166;48.908;1.870;2022-12-31T09:08:13;99963.03;;;14.34;94.46
71361;BME280;59166;48.908;1.870;2022-12-31T09:13:21;99963.03;;;14.34;94.85
71361;BME280;59166;48.908;1.870;2022-12-31T09:18:25;99958.69;;;14.33;94.30
71361;BME280;59166;48.908;1.870;2022-12-31T09:23:28;99956.69;;;14.39;93.81
71361;BME280;59166;48.908;1.870;2022-12-31T09:28:37;99969.28;;;14.35;94.00
71361;BME280;59166;48.908;1.870;2022-12-31T09:33:43;99995.50;;;14.45;93.08
71361;BME280;59166;48.908;1.870;2022-12-31T09:38:51;99994.41;;;14.46;92.85
71361;BME280;59166;48.908;1.870;2022-12-31T09:44:27;99984.53;;;14.50;92.47
71361;BME280;59166;48.908;1.870;2022-12-31T09:55:39;99990.50;;;14.52;90.09
71361;BME280;59166;48.908;1.870;2022-12-31T10:00:47;99988.44;;;14.43;90.92
71361;BME280;59166;48.908;1.870;2022-12-31T10:06:07;99983.59;;;14.40;90.63
71361;BME280;59166;48.908;1.870;2022-12-31T10:11:20;100001.53;;;14.41;90.47
71361;BME280;59166;48.908;1.870;2022-12-31T10:16:54;99988.97;;;14.46;89.31
71361;BME280;59166;48.908;1.870;2022-12-31T10:22:12;99990.28;;;14.48;88.94
71361;BME280;59166;48.908;1.870;2022-12-31T10:27:45;99989.47;;;14.48;88.37
71361;BME280;59166;48.908;1.870;2022-12-31T10:32:58;99979.78;;;14.41;88.49
71361;BME280;59166;48.908;1.870;2022-12-31T10:38:17;99974.56;;;14.45;88.28
71361;BME280;59166;48.908;1.870;2022-12-31T10:43:55;99964.28;;;14.61;88.05
71361;BME280;59166;48.908;1.870;2022-12-31T10:55:05;99952.09;;;15.09;84.39
71361;BME280;59166;48.908;1.870;2022-12-31T11:00:17;99951.81;;;15.24;83.60
71361;BME280;59166;48.908;1.870;2022-12-31T11:11:07;99951.06;;;15.05;84.63
71361;BME280;59166;48.908;1.870;2022-12-31T11:16:34;99953.47;;;15.07;82.44
71361;BME280;59166;48.908;1.870;2022-12-31T11:21:49;99947.34;;;15.01;82.85
71361;BME280;59166;48.908;1.870;2022-12-31T11:27:12;99946.66;;;14.90;83.48
71361;BME280;59166;48.908;1.870;2022-12-31T11:32:27;99944.31;;;15.03;82.56
71361;BME280;59166;48.908;1.870;2022-12-31T11:37:41;99922.59;;;15.16;82.81
71361;BME280;59166;48.908;1.870;2022-12-31T11:42:51;99933.16;;;15.18;81.77
71361;BME280;59166;48.908;1.870;2022-12-31T11:48:02;99923.38;;;15.17;81.98
71361;BME280;59166;48.908;1.870;2022-12-31T11:53:33;99900.72;;;15.21;81.76
71361;BME280;59166;48.908;1.870;2022-12-31T11:58:36;99902.16;;;15.32;80.20
71361;BME280;59166;48.908;1.870;2022-12-31T12:03:38;99889.16;;;15.29;79.84
71361;BME280;59166;48.908;1.870;2022-12-31T12:08:40;99891.66;;;15.26;79.82
71361;BME280;59166;48.908;1.870;2022-12-31T12:13:41;99882.88;;;15.15;81.01
71361;BME280;59166;48.908;1.870;2022-12-31T12:18:47;99875.81;;;15.14;80.88
71361;BME280;59166;48.908;1.870;2022-12-31T12:23:55;99867.44;;;15.11;80.44
71361;BME280;59166;48.908;1.870;2022-12-31T12:28:58;99867.66;;;15.14;80.49
71361;BME280;59166;48.908;1.870;2022-12-31T12:34:02;99857.88;;;15.13;80.17
71361;BME280;59166;48.908;1.870;2022-12-31T12:39:05;99850.03;;;15.12;80.33
71361;BME280;59166;48.908;1.870;2022-12-31T12:44:07;99833.78;;;15.07;80.34
71361;BME280;59166;48.908;1.870;2022-12-31T12:49:20;99841.38;;;15.10;79.09
71361;BME280;59166;48.908;1.870;2022-12-31T12:54:32;99832.41;;;15.09;79.20
71361;BME280;59166;48.908;1.870;2022-12-31T13:05:25;99843.06;;;15.06;79.11
71361;BME280;59166;48.908;1.870;2022-12-31T13:10:48;99847.69;;;15.05;78.29
71361;BME280;59166;48.908;1.870;2022-12-31T13:15:56;99854.25;;;15.04;78.26
71361;BME280;59166;48.908;1.870;2022-12-31T13:21:15;99876.00;;;15.04;77.55
71361;BME280;59166;48.908;1.870;2022-12-31T13:26:23;99872.66;;;14.93;78.45
71361;BME280;59166;48.908;1.870;2022-12-31T13:31:30;99852.78;;;14.93;77.83
71361;BME280;59166;48.908;1.870;2022-12-31T13:36:37;99854.59;;;14.84;78.51
71361;BME280;59166;48.908;1.870;2022-12-31T13:41:42;99852.97;;;14.83;76.93
71361;BME280;59166;48.908;1.870;2022-12-31T13:46:50;99849.84;;;14.76;78.15
71361;BME280;59166;48.908;1.870;2022-12-31T13:51:58;99860.13;;;14.79;77.53
71361;BME280;59166;48.908;1.870;2022-12-31T13:57:04;99855.19;;;14.81;77.59
71361;BME280;59166;48.908;1.870;2022-12-31T14:02:30;99842.56;;;14.71;77.00
71361;BME280;59166;48.908;1.870;2022-12-31T14:07:39;99831.50;;;14.68;77.05
71361;BME280;59166;48.908;1.870;2022-12-31T14:12:49;99814.88;;;14.69;77.74
71361;BME280;59166;48.908;1.870;2022-12-31T14:18:00;99816.44;;;14.57;77.91
71361;BME280;59166;48.908;1.870;2022-12-31T14:23:13;99820.56;;;14.54;77.79
71361;BME280;59166;48.908;1.870;2022-12-31T14:28:20;99816.56;;;14.52;77.28
71361;BME280;59166;48.908;1.870;2022-12-31T14:33:36;99804.06;;;14.51;77.89
71361;BME280;59166;48.908;1.870;2022-12-31T14:38:58;99825.59;;;14.47;76.58
71361;BME280;59166;48.908;1.870;2022-12-31T14:44:07;99796.56;;;14.42;76.86
71361;BME280;59166;48.908;1.870;2022-12-31T14:49:23;99804.22;;;14.40;76.70
71361;BME280;59166;48.908;1.870;2022-12-31T14:54:35;99803.53;;;14.35;76.51
71361;BME280;59166;48.908;1.870;2022-12-31T14:59:36;99807.56;;;14.37;75.83
71361;BME280;59166;48.908;1.870;2022-12-31T15:04:43;99816.28;;;14.34;75.69
71361;BME280;59166;48.908;1.870;2022-12-31T15:09:58;99811.25;;;14.28;74.66
71361;BME280;59166;48.908;1.870;2022-12-31T15:15:14;99809.91;;;14.25;75.31
71361;BME280;59166;48.908;1.870;2022-12-31T15:20:39;99823.09;;;14.18;75.45
71361;BME280;59166;48.908;1.870;2022-12-31T15:25:48;99822.13;;;14.09;75.07
71361;BME280;59166;48.908;1.870;2022-12-31T15:30:50;99823.03;;;14.05;76.37
71361;BME280;59166;48.908;1.870;2022-12-31T15:35:55;99826.88;;;13.99;75.77
71361;BME280;59166;48.908;1.870;2022-12-31T15:40:58;99822.34;;;13.94;75.87
71361;BME280;59166;48.908;1.870;2022-12-31T15:46:01;99821.31;;;13.90;75.71
71361;BME280;59166;48.908;1.870;2022-12-31T15:51:14;99815.09;;;13.89;75.01
71361;BME280;59166;48.908;1.870;2022-12-31T15:56:22;99841.50;;;13.84;74.73
71361;BME280;59166;48.908;1.870;2022-12-31T16:01:28;99840.47;;;13.80;75.23
71361;BME280;59166;48.908;1.870;2022-12-31T16:06:32;99842.69;;;13.78;74.36
71361;BME280;59166;48.908;1.870;2022-12-31T16:11:37;99849.44;;;13.80;74.06
71361;BME280;59166;48.908;1.870;2022-12-31T16:16:39;99856.25;;;13.78;73.79
71361;BME280;59166;48.908;1.870;2022-12-31T16:21:54;99825.06;;;13.75;73.88
71361;BME280;59166;48.908;1.870;2022-12-31T16:26:59;99838.94;;;13.74;73.15
71361;BME280;59166;48.908;1.870;2022-12-31T16:32:01;99865.03;;;13.70;73.21
71361;BME280;59166;48.908;1.870;2022-12-31T16:37:04;99863.94;;;13.71;72.80
71361;BME280;59166;48.908;1.870;2022-12-31T16:42:16;99865.28;;;13.73;72.43
71361;BME280;59166;48.908;1.870;2022-12-31T16:47:20;99873.88;;;13.80;71.42
71361;BME280;59166;48.908;1.870;2022-12-31T16:52:29;99853.81;;;13.76;71.06
71361;BME280;59166;48.908;1.870;2022-12-31T16:57:31;99852.50;;;13.74;70.84
71361;BME280;59166;48.908;1.870;2022-12-31T17:02:35;99865.28;;;13.73;71.10
71361;BME280;59166;48.908;1.870;2022-12-31T17:07:39;99855.69;;;13.81;70.28
71361;BME280;59166;48.908;1.870;2022-12-31T17:12:45;99841.56;;;13.79;70.47
71361;BME280;59166;48.908;1.870;2022-12-31T17:17:50;99863.94;;;13.71;71.19
71361;BME280;59166;48.908;1.870;2022-12-31T17:22:55;99839.53;;;13.66;71.05
71361;BME280;59166;48.908;1.870;2022-12-31T17:28:00;99828.41;;;13.67;70.36
71361;BME280;59166;48.908;1.870;2022-12-31T17:33:03;99837.38;;;13.68;70.39
71361;BME280;59166;48.908;1.870;2022-12-31T17:38:26;99854.19;;;13.70;70.21
71361;BME280;59166;48.908;1.870;2022-12-31T17:43:31;99852.28;;;13.70;69.20
71361;BME280;59166;48.908;1.870;2022-12-31T17:48:32;99862.34;;;13.65;70.11
71361;BME280;59166;48.908;1.870;2022-12-31T17:53:35;99854.50;;;13.63;70.35
71361;BME280;59166;48.908;1.870;2022-12-31T17:58:42;99872.44;;;13.64;69.64
71361;BME280;59166;48.908;1.870;2022-12-31T18:03:44;99885.78;;;13.61;69.84
71361;BME280;59166;48.908;1.870;2022-12-31T18:08:45;99906.34;;;13.62;69.57
71361;BME280;59166;48.908;1.870;2022-12-31T18:13:48;99889.06;;;13.58;70.30
71361;BME280;59166;48.908;1.870;2022-12-31T18:18:49;99896.44;;;13.52;70.11
71361;BME280;59166;48.908;1.870;2022-12-31T18:23:49;99910.66;;;13.44;70.44
71361;BME280;59166;48.908;1.870;2022-12-31T18:28:52;99909.84;;;13.44;69.89
71361;BME280;59166;48.908;1.870;2022-12-31T18:33:54;99908.22;;;13.43;70.17
71361;BME280;59166;48.908;1.870;2022-12-31T18:38:55;99903.38;;;13.39;69.73
71361;BME280;59166;48.908;1.870;2022-12-31T18:43:57;99922.88;;;13.41;68.56
71361;BME280;59166;48.908;1.870;2022-12-31T18:48:58;99931.91;;;13.37;69.22
71361;BME280;59166;48.908;1.870;2022-12-31T18:53:59;99935.69;;;13.36;68.97
71361;BME280;59166;48.908;1.870;2022-12-31T18:59:01;99938.09;;;13.37;68.70
71361;BME280;59166;48.908;1.870;2022-12-31T19:04:05;99944.34;;;13.38;68.37
71361;BME280;59166;48.908;1.870;2022-12-31T19:09:10;99950.69;;;13.28;68.63
71361;BME280;59166;48.908;1.870;2022-12-31T19:14:16;99943.44;;;13.24;68.73
71361;BME280;59166;48.908;1.870;2022-12-31T19:19:17;99948.56;;;13.25;68.31
71361;BME280;59166;48.908;1.870;2022-12-31T19:24:19;99943.63;;;13.27;67.93
71361;BME280;59166;48.908;1.870;2022-12-31T19:29:23;99969.97;;;13.27;67.56
71361;BME280;59166;48.908;1.870;2022-12-31T19:34:24;99970.22;;;13.30;67.37
71361;BME280;59166;48.908;1.870;2022-12-31T19:39:25;99962.63;;;13.27;67.98
71361;BME280;59166;48.908;1.870;2022-12-31T19:44:27;99949.13;;;13.22;67.05
71361;BME280;59166;48.908;1.870;2022-12-31T19:49:27;99951.88;;;13.17;67.34
71361;BME280;59166;48.908;1.870;2022-12-31T19:54:28;99932.69;;;13.14;67.08
71361;BME280;59166;48.908;1.870;2022-12-31T19:59:30;99942.75;;;13.08;67.88
71361;BME280;59166;48.908;1.870;2022-12-31T20:04:31;99960.09;;;13.07;68.10
71361;BME280;59166;48.908;1.870;2022-12-31T20:09:32;99953.09;;;13.06;68.11
71361;BME280;59166;48.908;1.870;2022-12-31T20:14:34;99964.66;;;13.17;67.69
71361;BME280;59166;48.908;1.870;2022-12-31T20:19:37;99955.63;;;13.21;67.67
71361;BME280;59166;48.908;1.870;2022-12-31T20:24:38;99943.63;;;13.27;66.26
71361;BME280;59166;48.908;1.870;2022-12-31T20:29:40;99949.19;;;13.41;65.64
71361;BME280;59166;48.908;1.870;2022-12-31T20:34:43;99951.56;;;13.48;65.52
71361;BME280;59166;48.908;1.870;2022-12-31T20:39:44;99940.44;;;13.49;65.47
71361;BME280;59166;48.908;1.870;2022-12-31T21:23:39;99952.38;;;13.77;60.82
71361;BME280;59166;48.908;1.870;2022-12-31T21:28:40;99982.38;;;14.09;59.83
71361;BME280;59166;48.908;1.870;2022-12-31T21:33:43;99984.63;;;14.02;60.55
71361;BME280;59166;48.908;1.870;2022-12-31T21:44:23;100003.88;;;14.06;59.68
71361;BME280;59166;48.908;1.870;2022-12-31T21:55:01;100006.44;;;13.97;60.53
71361;BME280;59166;48.908;1.870;2022-12-31T22:00:05;100004.53;;;13.98;60.43
71361;BME280;59166;48.908;1.870;2022-12-31T22:05:07;100012.50;;;13.89;60.85
71361;BME280;59166;48.908;1.870;2022-12-31T22:10:10;100020.28;;;13.96;60.53
71361;BME280;59166;48.908;1.870;2022-12-31T22:15:12;100020.63;;;13.89;60.68
71361;BME280;59166;48.908;1.870;2022-12-31T22:20:13;100022.38;;;13.80;61.96
71361;BME280;59166;48.908;1.870;2022-12-31T22:25:14;100026.50;;;13.77;61.20
71361;BME280;59166;48.908;1.870;2022-12-31T22:30:22;100020.00;;;13.68;61.54
71361;BME280;59166;48.908;1.870;2022-12-31T22:41:26;100005.81;;;13.53;62.46
71361;BME280;59166;48.908;1.870;2022-12-31T22:46:38;100013.19;;;13.47;62.47
71361;BME280;59166;48.908;1.870;2022-12-31T22:51:41;100015.03;;;13.52;63.05
71361;BME280;59166;48.908;1.870;2022-12-31T22:56:42;100029.06;;;13.59;62.10
71361;BME280;59166;48.908;1.870;2022-12-31T23:01:45;100031.22;;;13.62;62.62
71361;BME280;59166;48.908;1.870;2022-12-31T23:06:45;100040.00;;;13.54;63.24
71361;BME280;59166;48.908;1.870;2022-12-31T23:11:46;100047.56;;;13.57;63.24
71361;BME280;59166;48.908;1.870;2022-12-31T23:16:48;100034.91;;;13.47;63.66
71361;BME280;59166;48.908;1.870;2022-12-31T23:21:49;100040.25;;;13.52;63.57
71361;BME280;59166;48.908;1.870;2022-12-31T23:26:49;100038.88;;;13.55;63.56
71361;BME280;59166;48.908;1.870;2022-12-31T23:31:52;100037.31;;;13.49;63.66
71361;BME280;59166;48.908;1.870;2022-12-31T23:36:53;100057.53;;;13.61;63.65
71361;BME280;59166;48.908;1.870;2022-12-31T23:41:54;100044.78;;;13.62;63.66
71361;BME280;59166;48.908;1.870;2022-12-31T23:46:58;100057.00;;;13.64;63.42
71361;BME280;59166;48.908;1.870;2022-12-31T23:51:58;100053.97;;;13.66;62.54
71361;BME280;59166;48.908;1.870;2022-12-31T23:56:59;100053.66;;;13.72;62.86
